createdAt,value
2019-06-08T00:00:39.666Z,23.37
2019-06-08T00:02:32.668Z,23.31
2019-06-08T00:03:32.616Z,23.39
2019-06-08T00:05:25.619Z,23.37
2019-06-08T00:06:25.572Z,23.28
2019-06-08T00:08:19.068Z,23.23
2019-06-08T00:09:20.399Z,23.25
2019-06-08T00:11:10.003Z,23.34
2019-06-08T00:12:10.175Z,23.24
2019-06-08T00:14:02.946Z,23.34
2019-06-08T00:15:02.906Z,23.32
2019-06-08T00:16:55.911Z,23.31
2019-06-08T00:17:59.255Z,23.31
2019-06-08T00:19:48.850Z,23.28
2019-06-08T00:20:48.815Z,23.37
2019-06-08T00:22:41.008Z,23.24
2019-06-08T00:23:41.180Z,23.24
2019-06-08T00:25:33.968Z,23.27
2019-06-08T00:26:34.156Z,23.32
2019-06-08T00:28:26.900Z,23.21
2019-06-08T00:29:27.094Z,23.17
2019-06-08T00:31:20.175Z,23.15
2019-06-08T00:32:20.327Z,23.20
2019-06-08T00:34:12.810Z,23.17
2019-06-08T00:35:13.021Z,23.17
2019-06-08T00:37:05.787Z,23.23
2019-06-08T00:38:05.740Z,23.15
2019-06-08T00:39:58.725Z,23.21
2019-06-08T00:40:58.950Z,23.21
2019-06-08T00:42:50.775Z,23.18
2019-06-08T00:43:50.952Z,23.20
2019-06-08T00:45:43.735Z,23.20
2019-06-08T00:46:43.907Z,23.21
2019-06-08T00:48:36.686Z,23.20
2019-06-08T00:49:36.635Z,23.18
2019-06-08T00:51:29.851Z,23.25
2019-06-08T00:52:29.593Z,23.17
2019-06-08T00:54:23.479Z,23.18
2019-06-08T00:55:23.770Z,23.17
2019-06-08T00:57:15.693Z,23.24
2019-06-08T00:58:15.609Z,23.09
2019-06-08T01:00:10.575Z,23.13
2019-06-08T01:01:08.874Z,23.18
2019-06-08T01:03:01.980Z,23.17
2019-06-08T01:04:01.947Z,23.13
2019-06-08T01:05:54.921Z,23.15
2019-06-08T01:06:54.883Z,23.21
2019-06-08T01:08:48.000Z,23.08
2019-06-08T01:09:47.940Z,23.15
2019-06-08T01:11:40.934Z,23.09
2019-06-08T01:12:40.897Z,23.17
2019-06-08T01:14:34.009Z,23.15
2019-06-08T01:15:34.540Z,23.13
2019-06-08T01:17:27.476Z,23.13
2019-06-08T01:18:27.437Z,23.09
2019-06-08T01:20:21.558Z,23.09
2019-06-08T01:21:21.302Z,23.10
2019-06-08T01:23:12.980Z,23.13
2019-06-08T01:24:12.927Z,23.09
2019-06-08T01:26:05.924Z,23.12
2019-06-08T01:27:06.115Z,23.05
2019-06-08T01:28:58.883Z,23.06
2019-06-08T01:29:59.066Z,23.03
2019-06-08T01:31:51.831Z,23.06
2019-06-08T01:32:52.331Z,23.09
2019-06-08T01:34:44.815Z,23.08
2019-06-08T01:35:44.978Z,22.99
2019-06-08T01:37:37.742Z,23.05
2019-06-08T01:38:37.939Z,23.00
2019-06-08T01:40:31.539Z,23.08
2019-06-08T01:41:31.720Z,23.06
2019-06-08T01:43:23.741Z,23.02
2019-06-08T01:44:23.620Z,23.06
2019-06-08T01:46:16.607Z,23.02
2019-06-08T01:47:16.803Z,23.08
2019-06-08T01:49:08.659Z,23.05
2019-06-08T01:50:08.840Z,23.00
2019-06-08T01:52:01.610Z,22.99
2019-06-08T01:53:01.792Z,23.00
2019-06-08T01:54:53.638Z,23.03
2019-06-08T01:55:53.598Z,22.85
2019-06-08T01:57:46.709Z,22.98
2019-06-08T01:58:46.663Z,22.87
2019-06-08T02:00:41.635Z,22.99
2019-06-08T02:01:39.615Z,22.85
2019-06-08T02:03:32.776Z,22.84
2019-06-08T02:04:33.209Z,22.96
2019-06-08T02:06:26.191Z,22.94
2019-06-08T02:07:26.359Z,22.91
2019-06-08T02:09:18.553Z,22.91
2019-06-08T02:10:18.720Z,22.96
2019-06-08T02:12:11.490Z,22.98
2019-06-08T02:13:11.438Z,22.85
2019-06-08T02:15:04.499Z,22.84
2019-06-08T02:16:04.396Z,22.98
2019-06-08T02:17:57.506Z,23.00
2019-06-08T02:18:57.451Z,22.84
2019-06-08T02:20:50.450Z,22.84
2019-06-08T02:21:50.641Z,22.84
2019-06-08T02:23:43.421Z,22.85
2019-06-08T02:24:43.594Z,22.88
2019-06-08T02:26:36.445Z,22.85
2019-06-08T02:27:36.321Z,22.88
2019-06-08T02:29:29.464Z,22.88
2019-06-08T03:06:50.793Z,22.90
2019-06-08T03:07:50.739Z,22.83
2019-06-08T03:09:43.733Z,22.87
2019-06-08T03:10:43.697Z,22.83
2019-06-08T03:12:37.520Z,22.88
2019-06-08T03:13:37.907Z,22.87
2019-06-08T03:15:28.721Z,22.78
2019-06-08T03:16:28.686Z,22.81
2019-06-08T03:18:21.696Z,22.84
2019-06-08T03:19:23.108Z,22.84
2019-06-08T03:21:14.633Z,22.76
2019-06-08T03:22:14.604Z,22.81
2019-06-08T03:24:07.614Z,22.80
2019-06-08T03:25:07.556Z,22.88
2019-06-08T03:27:00.564Z,22.76
2019-06-08T03:28:00.512Z,22.76
2019-06-08T03:29:53.522Z,22.85
2019-06-08T03:30:55.045Z,22.73
2019-06-08T03:32:55.115Z,22.78
2019-06-08T03:33:54.534Z,22.75
2019-06-08T03:35:50.993Z,22.80
2019-06-08T03:36:48.067Z,22.81
2019-06-08T03:38:33.770Z,22.75
2019-06-08T03:39:32.335Z,22.72
2019-06-08T03:41:25.345Z,22.78
2019-06-08T03:42:25.290Z,22.80
2019-06-08T03:44:18.285Z,22.75
2019-06-08T03:45:18.248Z,22.88
2019-06-08T03:47:11.247Z,22.81
2019-06-08T03:48:11.208Z,22.93
2019-06-08T03:50:04.295Z,22.90
2019-06-08T03:51:04.259Z,22.76
2019-06-08T03:52:57.272Z,22.78
2019-06-08T03:53:57.217Z,22.78
2019-06-08T03:55:49.284Z,22.80
2019-06-08T03:56:49.253Z,22.78
2019-06-08T03:58:42.920Z,22.73
2019-06-08T03:59:43.766Z,22.76
2019-06-08T04:01:35.320Z,22.76
2019-06-08T04:02:35.265Z,22.75
2019-06-08T04:04:28.564Z,22.78
2019-06-08T04:05:28.529Z,22.76
2019-06-08T04:07:21.543Z,22.78
2019-06-08T04:08:21.484Z,22.80
2019-06-08T04:10:14.473Z,22.78
2019-06-08T04:11:14.443Z,22.81
2019-06-08T04:13:11.110Z,22.72
2019-06-08T04:14:07.629Z,22.75
2019-06-08T04:16:00.406Z,22.78
2019-06-08T04:17:00.582Z,22.78
2019-06-08T04:18:52.439Z,22.73
2019-06-08T04:20:09.628Z,22.80
2019-06-08T04:21:46.284Z,22.75
2019-06-08T04:22:47.256Z,22.70
2019-06-08T04:24:40.041Z,22.81
2019-06-08T04:25:40.426Z,22.78
2019-06-08T04:27:31.630Z,22.76
2019-06-08T04:28:31.564Z,22.76
2019-06-08T04:30:24.552Z,22.73
2019-06-08T04:31:24.522Z,22.76
2019-06-08T04:33:17.541Z,22.78
2019-06-08T04:34:17.719Z,22.78
2019-06-08T04:36:10.484Z,22.76
2019-06-08T04:37:10.660Z,22.76
2019-06-08T04:39:03.432Z,22.69
2019-06-08T04:40:03.399Z,22.69
2019-06-08T04:41:56.380Z,22.68
2019-06-08T04:42:56.574Z,22.76
2019-06-08T04:44:49.464Z,22.72
2019-06-08T04:45:49.931Z,22.81
2019-06-08T04:47:43.616Z,22.83
2019-06-08T04:48:43.491Z,22.81
2019-06-08T04:50:35.572Z,22.75
2019-06-08T04:51:35.521Z,22.70
2019-06-08T04:53:28.530Z,22.78
2019-06-08T04:54:28.549Z,22.78
2019-06-08T04:56:21.477Z,22.69
2019-06-08T04:57:21.659Z,22.81
2019-06-08T04:59:14.438Z,22.68
2019-06-08T05:00:14.616Z,22.66
2019-06-08T05:02:07.374Z,22.78
2019-06-08T05:03:07.343Z,22.70
2019-06-08T05:05:00.354Z,22.69
2019-06-08T05:06:00.303Z,22.72
2019-06-08T05:07:53.296Z,22.69
2019-06-08T05:08:53.254Z,22.72
2019-06-08T05:10:47.358Z,22.78
2019-06-08T05:11:47.488Z,22.78
2019-06-08T05:13:39.272Z,22.75
2019-06-08T05:14:39.194Z,22.78
2019-06-08T05:16:32.174Z,22.75
2019-06-08T05:17:32.355Z,22.80
2019-06-08T05:19:25.132Z,22.78
2019-06-08T05:20:38.410Z,22.78
2019-06-08T05:22:18.066Z,22.73
2019-06-08T05:23:18.263Z,22.76
2019-06-08T05:25:11.349Z,22.70
2019-06-08T05:26:11.526Z,22.76
2019-06-08T05:28:04.288Z,22.73
2019-06-08T05:29:04.254Z,22.73
2019-06-08T05:30:57.260Z,22.84
2019-06-08T05:31:57.208Z,22.93
2019-06-08T05:33:50.204Z,22.85
2019-06-08T05:34:50.168Z,22.87
2019-06-08T05:36:43.321Z,22.81
2019-06-08T05:37:43.664Z,22.81
2019-06-08T05:39:35.188Z,22.81
2019-06-08T05:40:35.617Z,22.91
2019-06-08T05:42:27.239Z,22.76
2019-06-08T05:43:27.196Z,22.90
2019-06-08T05:45:20.199Z,22.75
2019-06-08T05:46:20.147Z,22.75
2019-06-08T05:48:13.157Z,22.87
2019-06-08T05:49:13.114Z,22.84
2019-06-08T05:51:05.171Z,22.85
2019-06-08T05:52:05.135Z,22.85
2019-06-08T05:53:58.149Z,22.90
2019-06-08T05:54:58.092Z,22.91
2019-06-08T05:56:51.101Z,22.94
2019-06-08T05:57:51.072Z,23.00
2019-06-08T05:59:44.160Z,23.00
2019-06-08T06:00:44.335Z,23.00
2019-06-08T06:02:37.095Z,22.96
2019-06-08T06:03:37.088Z,22.87
2019-06-08T06:05:30.171Z,22.88
2019-06-08T06:06:30.352Z,22.84
2019-06-08T06:08:23.127Z,23.05
2019-06-08T06:09:23.077Z,23.00
2019-06-08T06:11:16.187Z,23.09
2019-06-08T06:12:16.364Z,23.00
2019-06-08T06:14:09.137Z,23.09
2019-06-08T06:15:09.323Z,23.08
2019-06-08T06:17:02.191Z,23.08
2019-06-08T06:18:02.173Z,23.21
2019-06-08T06:19:55.262Z,23.39
2019-06-08T06:21:09.831Z,23.40
2019-06-08T06:22:47.751Z,23.44
2019-06-08T06:23:47.573Z,23.55
2019-06-08T06:25:41.419Z,23.50
2019-06-08T06:26:41.276Z,23.54
2019-06-08T06:28:33.413Z,23.56
2019-06-08T06:29:33.388Z,23.54
2019-06-08T06:31:25.442Z,23.44
2019-06-08T06:32:25.393Z,23.46
2019-06-08T06:34:18.404Z,23.41
2019-06-08T06:35:18.348Z,23.43
2019-06-08T06:37:10.417Z,23.48
2019-06-08T06:38:10.613Z,23.48
2019-06-08T06:40:02.476Z,23.43
2019-06-08T06:41:02.650Z,23.43
2019-06-08T06:42:54.509Z,23.28
2019-06-08T06:43:54.453Z,23.32
2019-06-08T06:45:48.027Z,23.25
2019-06-08T06:46:48.009Z,23.23
2019-06-08T06:48:40.500Z,23.15
2019-06-08T06:49:40.466Z,23.28
2019-06-08T06:51:34.040Z,23.18
2019-06-08T06:52:33.423Z,23.20
2019-06-08T06:54:26.538Z,23.18
2019-06-08T06:55:26.532Z,23.20
2019-06-08T06:57:18.570Z,23.21
2019-06-08T06:58:18.752Z,23.18
2019-06-08T07:00:11.524Z,23.28
2019-06-08T07:01:11.700Z,23.31
2019-06-08T07:03:03.772Z,23.21
2019-06-08T07:04:03.515Z,23.20
2019-06-08T07:05:55.587Z,23.17
2019-06-08T07:06:55.540Z,23.10
2019-06-08T07:08:48.534Z,23.05
2019-06-08T07:09:48.496Z,23.08
2019-06-08T07:11:40.584Z,23.03
2019-06-08T07:12:40.762Z,23.05
2019-06-08T07:14:32.620Z,23.05
2019-06-08T07:15:41.103Z,23.08
2019-06-08T07:17:25.554Z,23.09
2019-06-08T07:18:25.520Z,23.05
2019-06-08T07:20:18.529Z,23.02
2019-06-08T07:21:18.476Z,23.03
2019-06-08T07:23:11.485Z,23.08
2019-06-08T07:24:11.437Z,23.02
2019-06-08T07:26:04.426Z,23.08
2019-06-08T07:27:07.358Z,23.03
2019-06-08T07:28:58.845Z,23.02
2019-06-08T07:29:58.945Z,23.06
2019-06-08T07:31:51.675Z,23.02
2019-06-08T07:32:50.929Z,23.06
2019-06-08T07:34:43.616Z,23.00
2019-06-08T07:35:43.564Z,23.09
2019-06-08T07:37:36.583Z,23.02
2019-06-08T07:38:36.749Z,23.02
2019-06-08T07:40:29.630Z,23.08
2019-06-08T07:41:29.810Z,22.99
2019-06-08T07:43:22.669Z,22.99
2019-06-08T07:44:22.636Z,23.05
2019-06-08T07:46:14.825Z,23.09
2019-06-08T07:47:14.778Z,23.06
2019-06-08T07:49:07.784Z,22.99
2019-06-08T07:50:07.731Z,23.06
2019-06-08T07:52:09.726Z,23.05
2019-06-08T07:52:59.864Z,23.05
2019-06-08T07:54:53.163Z,23.06
2019-06-08T07:55:53.510Z,23.00
2019-06-08T07:57:45.813Z,23.08
2019-06-08T07:58:45.803Z,23.05
2019-06-08T08:00:38.890Z,23.08
2019-06-08T08:01:39.068Z,23.05
2019-06-08T08:03:31.826Z,23.10
2019-06-08T08:04:31.819Z,23.17
2019-06-08T08:06:23.983Z,23.18
2019-06-08T08:07:23.929Z,23.23
2019-06-08T08:09:17.040Z,23.20
2019-06-08T08:10:17.052Z,23.24
2019-06-08T08:12:12.327Z,23.21
2019-06-08T08:13:10.045Z,23.18
2019-06-08T08:15:03.080Z,23.25
2019-06-08T08:16:03.021Z,23.17
2019-06-08T08:17:57.557Z,23.25
2019-06-08T08:18:56.062Z,23.32
2019-06-08T08:20:49.488Z,23.15
2019-06-08T08:21:51.893Z,23.18
2019-06-08T08:23:42.135Z,23.21
2019-06-08T08:24:42.081Z,23.23
2019-06-08T08:26:35.099Z,23.31
2019-06-08T08:27:37.372Z,23.25
2019-06-08T08:29:31.171Z,23.21
2019-06-08T08:30:28.519Z,23.28
2019-06-08T08:32:21.097Z,23.28
2019-06-08T08:33:21.073Z,23.28
2019-06-08T08:35:14.165Z,23.24
2019-06-08T08:36:14.335Z,23.34
2019-06-08T08:38:07.707Z,23.25
2019-06-08T08:39:08.358Z,23.31
2019-06-08T08:41:06.874Z,23.32
2019-06-08T08:42:04.837Z,23.34
2019-06-08T08:43:54.286Z,23.34
2019-06-08T08:44:54.146Z,23.23
2019-06-08T08:46:48.638Z,23.28
2019-06-08T08:47:48.356Z,23.37
2019-06-08T08:49:39.143Z,23.37
2019-06-08T08:50:39.088Z,23.37
2019-06-08T08:52:37.069Z,23.36
2019-06-08T08:53:32.148Z,23.44
2019-06-08T08:55:24.235Z,23.55
2019-06-08T08:56:24.184Z,23.56
2019-06-08T08:58:18.622Z,23.59
2019-06-08T08:59:17.843Z,23.66
2019-06-08T09:01:10.241Z,23.56
2019-06-08T09:02:11.467Z,23.55
2019-06-08T09:04:04.931Z,23.81
2019-06-08T09:05:03.729Z,23.87
2019-06-08T09:06:57.891Z,24.02
2019-06-08T09:07:56.384Z,23.96
2019-06-08T09:09:48.394Z,23.98
2019-06-08T09:10:48.253Z,24.16
2019-06-08T09:12:41.363Z,24.01
2019-06-08T09:13:41.303Z,23.87
2019-06-08T09:15:34.414Z,23.71
2019-06-08T09:16:34.362Z,23.56
2019-06-08T09:18:28.680Z,23.59
2019-06-08T09:19:28.163Z,23.61
2019-06-08T09:21:20.437Z,23.54
2019-06-08T09:22:20.605Z,23.65
2019-06-08T09:24:12.588Z,23.83
2019-06-08T09:25:13.598Z,23.77
2019-06-08T09:27:07.810Z,23.77
2019-06-08T09:28:05.424Z,23.99
2019-06-08T09:30:00.876Z,23.98
2019-06-08T09:31:00.643Z,24.10
2019-06-08T09:32:52.359Z,24.17
2019-06-08T09:33:57.111Z,24.29
2019-06-08T09:35:44.796Z,24.23
2019-06-08T09:36:47.630Z,24.20
2019-06-08T09:38:38.662Z,24.26
2019-06-08T09:39:38.577Z,24.33
2019-06-08T09:41:31.414Z,24.45
2019-06-08T09:42:30.967Z,24.38
2019-06-08T09:44:23.975Z,24.24
2019-06-08T09:45:23.921Z,24.28
2019-06-08T09:47:18.176Z,24.35
2019-06-08T09:48:18.195Z,24.35
2019-06-08T09:50:09.869Z,24.39
2019-06-08T09:51:09.863Z,24.39
2019-06-08T09:53:14.750Z,24.40
2019-06-08T09:54:04.752Z,24.35
2019-06-08T09:55:56.649Z,24.28
2019-06-08T09:56:55.789Z,24.30
2019-06-08T09:58:51.167Z,24.32
2019-06-08T09:59:48.322Z,24.28
2019-06-08T10:01:40.793Z,24.16
2019-06-08T10:02:40.736Z,24.14
2019-06-08T10:04:32.830Z,24.03
2019-06-08T10:05:32.772Z,24.10
2019-06-08T10:07:25.163Z,24.06
2019-06-08T10:08:25.113Z,24.13
2019-06-08T10:10:18.216Z,24.26
2019-06-08T10:11:17.250Z,24.18
2019-06-08T10:13:10.031Z,24.16
2019-06-08T10:14:12.542Z,24.05
2019-06-08T10:16:05.161Z,24.14
2019-06-08T10:17:03.926Z,24.26
2019-06-08T10:18:56.816Z,24.18
2019-06-08T10:19:57.871Z,24.17
2019-06-08T10:21:48.169Z,24.14
2019-06-08T10:22:50.049Z,24.05
2019-06-08T10:24:41.517Z,24.05
2019-06-08T10:25:39.367Z,24.08
2019-06-08T10:27:31.435Z,24.14
2019-06-08T10:28:31.401Z,24.17
2019-06-08T10:30:24.409Z,24.20
2019-06-08T10:31:36.493Z,24.16
2019-06-08T10:33:18.452Z,24.13
2019-06-08T10:34:16.391Z,24.03
2019-06-08T10:36:12.358Z,24.06
2019-06-08T10:37:12.946Z,24.05
2019-06-08T10:39:03.825Z,23.88
2019-06-08T10:40:03.761Z,23.87
2019-06-08T10:41:53.461Z,23.88
2019-06-08T10:42:53.425Z,24.01
2019-06-08T10:44:45.610Z,23.99
2019-06-08T10:45:45.559Z,23.84
2019-06-08T10:47:38.543Z,23.98
2019-06-08T10:48:38.509Z,23.99
2019-06-08T10:50:31.214Z,24.03
2019-06-08T10:51:31.163Z,23.96
2019-06-08T10:53:23.239Z,24.01
2019-06-08T10:54:23.423Z,23.88
2019-06-08T10:56:15.330Z,23.84
2019-06-08T10:57:15.468Z,23.84
2019-06-08T10:59:11.598Z,23.81
2019-06-08T11:00:17.961Z,23.91
2019-06-08T11:02:05.119Z,23.96
2019-06-08T11:03:03.317Z,23.98
2019-06-08T11:04:53.229Z,24.01
2019-06-08T11:05:53.174Z,24.08
2019-06-08T11:07:47.885Z,24.11
2019-06-08T11:08:45.314Z,24.10
2019-06-08T11:10:37.446Z,24.11
2019-06-08T11:11:38.313Z,24.26
2019-06-08T11:13:30.336Z,24.16
2019-06-08T11:14:30.549Z,24.24
2019-06-08T11:16:22.385Z,24.21
2019-06-08T11:17:22.569Z,24.24
2019-06-08T11:19:14.422Z,24.35
2019-06-08T11:20:14.602Z,24.38
2019-06-08T11:22:12.346Z,24.16
2019-06-08T11:23:09.810Z,24.13
2019-06-08T11:25:00.804Z,24.03
2019-06-08T11:26:04.623Z,24.05
2019-06-08T11:27:51.452Z,24.01
2019-06-08T11:28:51.442Z,24.08
2019-06-08T11:30:43.570Z,24.28
2019-06-08T11:31:43.535Z,24.28
2019-06-08T11:33:35.632Z,24.40
2019-06-08T11:34:37.710Z,24.45
2019-06-08T11:36:28.674Z,24.33
2019-06-08T11:37:28.627Z,24.30
2019-06-08T11:39:20.611Z,24.26
2019-06-08T11:40:21.010Z,24.28
2019-06-08T11:42:13.184Z,24.23
2019-06-08T11:43:12.590Z,24.24
2019-06-08T11:45:04.687Z,24.11
2019-06-08T11:46:04.806Z,24.08
2019-06-08T11:47:58.405Z,24.17
2019-06-08T11:49:01.101Z,24.14
2019-06-08T11:50:50.697Z,24.20
2019-06-08T11:51:50.871Z,24.18
2019-06-08T11:53:43.679Z,24.26
2019-06-08T11:54:43.631Z,24.35
2019-06-08T11:56:37.560Z,24.29
2019-06-08T11:57:37.406Z,24.23
2019-06-08T11:59:28.942Z,24.36
2019-06-08T12:00:31.011Z,24.30
2019-06-08T12:02:21.916Z,24.33
2019-06-08T12:03:21.852Z,24.32
2019-06-08T12:05:14.946Z,24.20
2019-06-08T12:06:14.908Z,24.21
2019-06-08T12:08:08.432Z,24.30
2019-06-08T12:09:10.414Z,24.14
2019-06-08T12:11:01.992Z,24.14
2019-06-08T12:12:00.125Z,24.13
2019-06-08T12:13:52.000Z,24.08
2019-06-08T12:14:52.161Z,24.08
2019-06-08T12:16:44.923Z,24.01
2019-06-08T12:17:44.888Z,24.03
2019-06-08T12:19:37.911Z,23.93
2019-06-08T12:20:37.847Z,23.88
2019-06-08T12:22:30.056Z,23.87
2019-06-08T12:23:29.981Z,23.78
2019-06-08T12:25:22.981Z,23.83
2019-06-08T12:26:22.937Z,23.95
2019-06-08T12:28:17.834Z,23.95
2019-06-08T12:29:18.740Z,23.98
2019-06-08T12:31:12.069Z,24.05
2019-06-08T12:32:10.667Z,24.03
2019-06-08T12:34:00.430Z,24.05
2019-06-08T12:35:00.370Z,24.03
2019-06-08T12:36:53.359Z,24.16
2019-06-08T12:37:53.325Z,24.14
2019-06-08T12:39:45.411Z,24.24
2019-06-08T12:40:45.376Z,24.21
2019-06-08T12:42:38.374Z,24.11
2019-06-08T12:43:38.596Z,24.02
2019-06-08T12:45:30.509Z,23.93
2019-06-08T12:46:30.453Z,23.81
2019-06-08T12:48:25.443Z,23.81
2019-06-08T12:49:23.407Z,23.78
2019-06-08T12:51:17.253Z,23.80
2019-06-08T12:52:16.725Z,23.80
2019-06-08T12:54:08.440Z,23.76
2019-06-08T12:55:12.498Z,23.80
2019-06-08T12:57:00.883Z,23.83
2019-06-08T12:58:00.536Z,23.88
2019-06-08T12:59:52.603Z,24.17
2019-06-08T13:00:52.570Z,24.20
2019-06-08T13:02:47.781Z,24.36
2019-06-08T13:03:48.242Z,24.30
2019-06-08T13:05:38.534Z,24.28
2019-06-08T13:06:40.773Z,24.26
2019-06-08T13:08:31.491Z,24.39
2019-06-08T13:09:31.669Z,24.38
2019-06-08T13:11:24.433Z,24.35
2019-06-08T13:12:24.625Z,24.29
2019-06-08T13:14:19.429Z,24.36
2019-06-08T13:15:21.475Z,24.43
2019-06-08T13:17:11.875Z,24.38
2019-06-08T13:18:11.976Z,24.23
2019-06-08T13:20:02.606Z,24.45
2019-06-08T13:21:15.661Z,24.53
2019-06-08T13:22:54.631Z,24.57
2019-06-08T13:23:54.830Z,24.57
2019-06-08T13:25:48.252Z,24.50
2019-06-08T13:26:50.446Z,24.50
2019-06-08T13:28:40.645Z,24.53
2019-06-08T13:29:40.595Z,24.50
2019-06-08T13:31:33.588Z,24.45
2019-06-08T13:32:33.554Z,24.47
2019-06-08T13:34:28.432Z,24.47
2019-06-08T13:35:27.411Z,24.60
2019-06-08T13:37:21.773Z,24.32
2019-06-08T13:38:21.965Z,24.29
2019-06-08T13:40:13.203Z,24.23
2019-06-08T13:41:12.985Z,24.21
2019-06-08T13:43:07.971Z,24.20
2019-06-08T13:44:08.133Z,24.14
2019-06-08T13:45:58.800Z,24.29
2019-06-08T13:46:58.747Z,24.16
2019-06-08T13:48:51.740Z,24.16
2019-06-08T13:49:51.697Z,24.11
2019-06-08T13:51:44.811Z,24.23
2019-06-08T13:52:44.756Z,24.18
2019-06-08T13:54:38.254Z,24.26
2019-06-08T13:55:49.570Z,24.39
2019-06-08T13:57:30.905Z,24.45
2019-06-08T13:58:33.297Z,24.54
2019-06-08T14:00:24.903Z,24.51
2019-06-08T14:01:24.062Z,24.40
2019-06-08T14:03:18.591Z,24.21
2019-06-08T14:04:19.165Z,24.35
2019-06-08T14:06:08.863Z,24.23
2019-06-08T14:07:09.049Z,24.21
2019-06-08T14:09:01.813Z,24.26
2019-06-08T14:10:01.789Z,24.24
2019-06-08T14:11:54.775Z,24.21
2019-06-08T14:12:54.730Z,24.23
2019-06-08T14:14:47.918Z,24.35
2019-06-08T14:15:48.783Z,24.50
2019-06-08T14:17:39.754Z,24.50
2019-06-08T14:18:39.725Z,24.48
2019-06-08T14:20:34.565Z,24.47
2019-06-08T14:21:38.537Z,24.50
2019-06-08T14:23:25.670Z,24.48
2019-06-08T14:24:30.009Z,24.47
2019-06-08T14:26:20.171Z,24.33
2019-06-08T14:27:17.705Z,24.21
2019-06-08T14:29:10.906Z,24.20
2019-06-08T14:30:11.058Z,24.21
2019-06-08T14:32:02.895Z,24.21
2019-06-08T14:33:03.091Z,24.18
2019-06-08T14:34:58.204Z,24.18
2019-06-08T14:35:56.818Z,24.17
2019-06-08T14:37:48.294Z,24.17
2019-06-08T14:38:49.456Z,24.18
2019-06-08T14:40:40.248Z,24.16
2019-06-08T14:41:40.193Z,24.14
2019-06-08T14:43:32.280Z,24.08
2019-06-08T14:44:33.978Z,24.06
2019-06-08T14:46:26.104Z,24.03
2019-06-08T14:47:27.396Z,24.05
2019-06-08T14:49:22.901Z,24.06
2019-06-08T14:50:19.740Z,24.13
2019-06-08T14:52:11.148Z,24.14
2019-06-08T14:53:11.328Z,24.23
2019-06-08T14:55:03.185Z,24.26
2019-06-08T14:56:08.310Z,24.21
2019-06-08T14:57:58.020Z,24.21
2019-06-08T14:58:57.611Z,24.20
2019-06-08T15:00:49.121Z,24.26
2019-06-08T15:01:49.279Z,24.29
2019-06-08T15:03:42.035Z,24.24
2019-06-08T15:04:42.228Z,24.23
2019-06-08T15:06:34.432Z,24.24
2019-06-08T15:07:34.572Z,24.24
2019-06-08T15:09:27.654Z,24.21
2019-06-08T15:10:29.402Z,24.16
2019-06-08T15:12:21.438Z,24.18
2019-06-08T15:13:21.772Z,24.21
2019-06-08T15:15:13.360Z,24.16
2019-06-08T15:16:13.543Z,24.16
2019-06-08T15:18:08.413Z,24.14
2019-06-08T15:19:08.129Z,24.16
2019-06-08T15:20:59.257Z,24.02
2019-06-08T15:21:59.452Z,23.99
2019-06-08T15:23:52.230Z,23.99
2019-06-08T15:24:52.408Z,23.96
2019-06-08T15:26:46.058Z,23.86
2019-06-08T15:27:47.717Z,23.84
2019-06-08T15:29:38.244Z,23.86
2019-06-08T15:30:38.594Z,23.81
2019-06-08T15:32:33.716Z,23.73
2019-06-08T15:33:33.695Z,23.77
2019-06-08T15:35:25.129Z,23.74
2019-06-08T15:36:25.209Z,23.76
2019-06-08T15:38:17.488Z,23.76
2019-06-08T15:39:17.907Z,23.78
2019-06-08T15:41:09.250Z,23.71
2019-06-08T15:42:09.196Z,23.74
2019-06-08T15:44:02.186Z,23.76
2019-06-08T15:45:02.158Z,23.81
2019-06-08T15:46:55.161Z,23.73
2019-06-08T15:47:55.108Z,23.77
2019-06-08T15:49:50.357Z,23.76
2019-06-08T15:50:49.423Z,23.76
2019-06-08T15:52:41.054Z,23.71
2019-06-08T15:53:41.023Z,23.71
2019-06-08T15:55:34.543Z,23.63
2019-06-08T15:56:45.778Z,23.61
2019-06-08T15:58:29.499Z,23.63
2019-06-08T15:59:30.870Z,23.65
2019-06-08T16:01:20.168Z,23.65
2019-06-08T16:02:19.991Z,23.63
2019-06-08T16:04:12.999Z,23.62
2019-06-08T16:05:13.176Z,23.71
2019-06-08T16:07:06.002Z,23.56
2019-06-08T16:08:05.904Z,23.66
2019-06-08T16:09:58.903Z,23.66
2019-06-08T16:10:58.866Z,23.63
2019-06-08T16:12:51.851Z,23.68
2019-06-08T16:13:52.044Z,23.59
2019-06-08T16:15:44.824Z,23.55
2019-06-08T16:16:45.005Z,23.56
2019-06-08T16:18:37.792Z,23.56
2019-06-08T16:19:37.728Z,23.54
2019-06-08T16:21:31.753Z,23.59
2019-06-08T16:22:31.728Z,23.59
2019-06-08T16:24:23.798Z,23.58
2019-06-08T16:25:23.972Z,23.48
2019-06-08T16:27:16.730Z,23.59
2019-06-08T16:28:16.700Z,23.58
2019-06-08T16:30:10.041Z,23.54
2019-06-08T16:31:09.660Z,23.55
2019-06-08T16:33:02.645Z,23.56
2019-06-08T16:34:02.608Z,23.56
2019-06-08T16:35:55.722Z,23.54
2019-06-08T16:36:55.694Z,23.56
2019-06-08T16:38:47.738Z,23.48
2019-06-08T16:39:47.706Z,23.50
2019-06-08T16:41:40.906Z,23.48
2019-06-08T16:42:40.992Z,23.51
2019-06-08T16:44:34.172Z,23.51
2019-06-08T16:45:33.134Z,23.56
2019-06-08T16:47:26.909Z,23.58
2019-06-08T16:48:25.752Z,23.61
2019-06-08T16:50:24.586Z,23.62
2019-06-08T16:51:18.708Z,23.56
2019-06-08T16:53:10.795Z,23.50
2019-06-08T16:54:10.761Z,23.50
2019-06-08T16:56:03.734Z,23.50
2019-06-08T16:57:10.098Z,23.54
2019-06-08T16:58:56.705Z,23.56
2019-06-08T16:59:56.706Z,23.51
2019-06-08T17:01:49.664Z,23.51
2019-06-08T17:02:49.615Z,23.46
2019-06-08T17:04:42.702Z,23.40
2019-06-08T17:05:42.671Z,23.44
2019-06-08T17:07:35.677Z,23.43
2019-06-08T17:08:38.737Z,23.39
2019-06-08T17:10:28.721Z,23.46
2019-06-08T17:11:29.570Z,23.43
2019-06-08T17:13:21.695Z,23.51
2019-06-08T17:14:24.814Z,23.43
2019-06-08T17:16:14.648Z,23.46
2019-06-08T17:17:14.594Z,23.44
2019-06-08T17:19:07.602Z,23.46
2019-06-08T17:20:07.552Z,23.40
2019-06-08T17:22:00.560Z,23.44
2019-06-08T17:23:00.507Z,23.44
2019-06-08T17:24:53.510Z,23.46
2019-06-08T17:25:53.464Z,23.43
2019-06-08T17:27:45.547Z,23.43
2019-06-08T17:28:45.725Z,23.40
2019-06-08T17:30:39.406Z,23.37
2019-06-08T17:31:39.303Z,23.41
2019-06-08T17:33:31.461Z,23.39
2019-06-08T17:34:31.778Z,23.40
2019-06-08T17:36:24.399Z,23.39
2019-06-08T17:37:24.369Z,23.34
2019-06-08T17:39:17.376Z,23.36
2019-06-08T17:40:17.549Z,23.37
2019-06-08T17:42:09.435Z,23.39
2019-06-08T17:43:09.355Z,23.36
2019-06-08T17:45:01.424Z,23.31
2019-06-08T17:46:01.391Z,23.37
2019-06-08T17:47:54.439Z,23.32
2019-06-08T17:48:54.384Z,23.37
2019-06-08T17:50:47.460Z,23.36
2019-06-08T17:51:47.404Z,23.39
2019-06-08T17:53:39.490Z,23.28
2019-06-08T17:54:39.670Z,23.39
2019-06-08T17:56:32.981Z,23.23
2019-06-08T17:57:42.373Z,23.37
2019-06-08T17:59:25.504Z,23.37
2019-06-08T18:00:25.512Z,23.37
2019-06-08T18:02:27.269Z,23.34
2019-06-08T18:03:18.410Z,23.37
2019-06-08T18:05:11.506Z,23.39
2019-06-08T18:06:11.467Z,23.40
2019-06-08T18:08:04.507Z,23.41
2019-06-08T18:09:04.456Z,23.36
2019-06-08T18:10:57.592Z,23.37
2019-06-08T18:11:56.456Z,23.36
2019-06-08T18:13:49.467Z,23.36
2019-06-08T18:14:49.413Z,23.39
2019-06-08T18:16:43.758Z,23.32
2019-06-08T18:17:43.805Z,23.31
2019-06-08T18:19:38.010Z,23.37
2019-06-08T18:20:38.602Z,23.37
2019-06-08T18:22:28.418Z,23.36
2019-06-08T18:23:28.384Z,23.31
2019-06-08T18:25:20.462Z,23.32
2019-06-08T18:26:20.419Z,23.31
2019-06-08T18:28:13.709Z,23.32
2019-06-08T18:29:13.374Z,23.23
2019-06-08T18:31:07.511Z,23.31
2019-06-08T18:32:07.339Z,23.28
2019-06-08T18:34:01.999Z,23.21
2019-06-08T18:34:59.287Z,23.18
2019-06-08T18:36:52.513Z,23.15
2019-06-08T18:37:52.447Z,23.15
2019-06-08T18:39:45.959Z,23.18
2019-06-08T18:40:47.822Z,23.18
2019-06-08T18:42:39.361Z,23.15
2019-06-08T18:43:40.027Z,23.10
2019-06-08T18:45:30.429Z,23.18
2019-06-08T18:46:30.622Z,23.17
2019-06-08T18:48:23.415Z,23.10
2019-06-08T18:49:25.622Z,23.10
2019-06-08T18:51:17.509Z,23.05
2019-06-08T18:52:17.458Z,23.08
2019-06-08T18:54:14.717Z,23.09
2019-06-08T18:55:08.486Z,23.05
2019-06-08T18:57:01.451Z,23.02
2019-06-08T18:58:13.930Z,23.09
2019-06-08T18:59:54.489Z,23.03
2019-06-08T19:00:54.456Z,22.99
2019-06-08T19:02:50.023Z,23.08
2019-06-08T19:03:50.233Z,23.03
2019-06-08T19:05:43.678Z,23.02
2019-06-08T19:06:41.210Z,22.94
2019-06-08T19:08:32.554Z,22.93